Aérodrome :
LOGIN :

S'inscrire | Disclaimer

   EN    FR    IT 

 










Légende :    VFR   VFR Marginal   IFR   IFR Intensif   IFR Très Intensif
Visi : 
Plafond : 
>= 8 km
>= 3000ft
5 à 8 km
1000 à 3000 ft
1500m à 5 km
500 à 1000 ft
800 à 1500m
200 à 500 ft
< 800m
< 200 ft
Symboles :   Orages  Brouillard  Fortes neiges  Fortes précipitations  Vent > 20 kt
SIGMETs :   Divers  Orages  Givrage  Turbulence  Onde Orograph.  Cendres Volcan.







- Altitude de l'aérodrome : 26 ft
- Code IATA : BIA
- Voir les cartes d'approche


LFKB - Bastia

DERNIER METAR :
  • 122200Z AUTO 21005KT //// R34///// // NSC 13/12 Q1026

METARs EXPIRÉS :
  • 122130Z AUTO 20003KT 160V240 CAVOK 13/12 Q1026 TEMPO 3000 BR
  • 122100Z AUTO 21004KT 9999 SCT015 13/12 Q1026 TEMPO 3000 BR
  • 122030Z AUTO 21004KT 160V240 9000 FEW014 12/12 Q1026 TEMPO 3000 BR
  • 122000Z AUTO 21003KT 7000 NSC 13/12 Q1026 NOSIG
  • 121930Z AUTO 21002KT 4200 BR NSC 13/12 Q1026 BECMG 9999 NSW

TAF TAF LFKB
Valide du 12 à 21h jusqu'au 13 à 21h UTC


122000Z 1221/1321 24003KT 9999 FEW020 BKN260 TX20/1312Z TN11/1305Z
TEMPO 1221/1306 3000 BR
TEMPO 1310/1317 14010KT
ATIS : +33 4 95 59 19 40
Pas de NOTAMs connus pour ce terrain.



MET'MAP, la Météo Aéronautique d'un coup d'oeil ! - Copyright ORBIFLY Décembre 2007 - Disclaimer

ORBIFLY MET'MAP TEAM :

Programmation & Développement : Alexandra Zaïnal
Conception & Développement : Baudouin d'Aumeries
Co-Programmation & Développement : Marc-Olivier Méhu
Soutien technique & logistique : Manuel Goepfert

Contact : metmap@orbifly.com




SOURCES & CREDITS :

   NOAA